Time;durP1;ratioP1;P1;durP2;ratioP2;P2;SDS_P1;SDS_P2;PMS_P1;PMS_P2;Temp;Humidity;BMP_temperature;BMP_pressure;BME280_temperature;BME280_humidity;BME280_pressure;Samples;Min_cycle;Max_cycle;Signal;HPM_P1;HPM_P2
2023/02/03 00:00:05;;;;;;;2.40;0.10;;;20.30;49.80;;;;;;5066155;28;20048;-41
2023/02/03 00:02:38;;;;;;;4.22;0.10;;;20.30;49.80;;;;;;5063653;28;20044;-41
2023/02/03 00:05:06;;;;;;;0.35;0.10;;;20.30;50.00;;;;;;5066076;28;20040;-41
2023/02/03 00:07:34;;;;;;;2.13;0.00;;;20.30;50.00;;;;;;5064702;28;20511;-42
2023/02/03 00:10:02;;;;;;;0.30;0.10;;;20.30;50.20;;;;;;5065809;28;20045;-42
2023/02/03 00:12:30;;;;;;;0.88;0.10;;;20.30;50.30;;;;;;5065683;28;20048;-41
2023/02/03 00:14:57;;;;;;;0.10;0.10;;;20.30;50.60;;;;;;5063304;28;20040;-43
2023/02/03 00:17:25;;;;;;;0.13;0.10;;;20.30;50.70;;;;;;5065743;28;20041;-43
2023/02/03 00:19:53;;;;;;;0.25;0.10;;;20.20;50.80;;;;;;5065813;28;20127;-40
2023/02/03 00:22:21;;;;;;;0.20;0.10;;;20.30;51.00;;;;;;5065789;28;20051;-43
2023/02/03 00:24:48;;;;;;;0.10;0.10;;;20.20;51.10;;;;;;5065549;28;20547;-42
2023/02/03 00:27:15;;;;;;;0.22;0.10;;;20.20;51.30;;;;;;5065003;28;20610;-42
2023/02/03 00:29:43;;;;;;;0.32;0.10;;;20.20;51.50;;;;;;5064344;28;20446;-41
2023/02/03 00:32:10;;;;;;;0.65;0.20;;;20.30;51.70;;;;;;5072041;28;20041;-42
2023/02/03 00:34:39;;;;;;;0.75;0.10;;;20.20;51.90;;;;;;5063474;28;20466;-41
2023/02/03 00:37:06;;;;;;;0.40;0.10;;;20.30;52.10;;;;;;5066977;28;20126;-41
2023/02/03 00:39:36;;;;;;;0.80;0.10;;;20.30;52.10;;;;;;5062678;28;20094;-42
2023/02/03 00:42:04;;;;;;;0.50;0.00;;;20.30;52.30;;;;;;5063475;28;20497;-41
2023/02/03 00:44:32;;;;;;;0.20;0.10;;;20.30;52.50;;;;;;5064313;28;20879;-42
2023/02/03 00:46:59;;;;;;;0.20;0.10;;;20.20;52.40;;;;;;5062515;28;20137;-41
2023/02/03 00:49:27;;;;;;;2.50;0.25;;;20.20;52.50;;;;;;5064315;28;20507;-42
2023/02/03 00:51:56;;;;;;;0.40;0.00;;;20.20;52.30;;;;;;5063961;28;20204;-44
2023/02/03 00:54:24;;;;;;;2.00;0.10;;;20.20;52.30;;;;;;5061845;28;20044;-43
2023/02/03 00:56:51;;;;;;;1.35;0.10;;;20.20;52.30;;;;;;5062413;28;20064;-45
2023/02/03 00:59:18;;;;;;;1.58;0.10;;;20.20;52.30;;;;;;5063575;28;20086;-44
2023/02/03 01:01:45;;;;;;;0.30;0.10;;;20.20;52.30;;;;;;5063573;28;20063;-43
2023/02/03 01:04:13;;;;;;;2.40;0.10;;;20.20;52.30;;;;;;5061546;28;20060;-43
2023/02/03 01:06:41;;;;;;;4.85;0.90;;;20.20;52.30;;;;;;5064988;28;20044;-44
2023/02/03 01:09:09;;;;;;;2.80;0.10;;;20.20;52.20;;;;;;5062299;28;20036;-43
2023/02/03 01:11:37;;;;;;;1.85;0.25;;;20.20;52.20;;;;;;5062435;28;20048;-43
2023/02/03 01:14:04;;;;;;;1.98;0.08;;;20.20;52.10;;;;;;5059575;28;20124;-42
2023/02/03 01:16:35;;;;;;;0.52;0.10;;;20.20;52.00;;;;;;5062051;28;20886;-45
2023/02/03 01:19:02;;;;;;;0.20;0.20;;;20.20;52.20;;;;;;5061044;28;20560;-42
2023/02/03 01:21:29;;;;;;;2.05;0.10;;;20.20;51.80;;;;;;5063841;28;20040;-46
2023/02/03 01:23:56;;;;;;;1.85;0.20;;;20.10;51.60;;;;;;5062245;28;20386;-43
2023/02/03 01:26:25;;;;;;;0.10;0.08;;;20.10;51.50;;;;;;5061035;28;20041;-44
2023/02/03 01:28:52;;;;;;;1.52;0.43;;;20.10;51.40;;;;;;5061878;28;20508;-42
2023/02/03 01:31:21;;;;;;;1.10;0.65;;;20.10;51.30;;;;;;5063597;28;20032;-52
2023/02/03 01:33:48;;;;;;;0.40;0.40;;;20.10;51.30;;;;;;5063678;28;20127;-42
2023/02/03 01:36:17;;;;;;;3.85;0.10;;;20.10;51.20;;;;;;5062421;28;20067;-43
2023/02/03 01:38:44;;;;;;;0.80;0.30;;;20.10;51.20;;;;;;5061210;28;20040;-45
2023/02/03 01:41:15;;;;;;;1.10;0.10;;;20.10;51.10;;;;;;5063743;28;20072;-43
2023/02/03 01:43:47;;;;;;;3.10;0.10;;;20.10;51.70;;;;;;5060901;28;20513;-44
2023/02/03 01:46:25;;;;;;;0.57;0.10;;;20.10;50.90;;;;;;5063081;28;20051;-46
2023/02/03 01:48:55;;;;;;;0.10;0.08;;;20.10;50.80;;;;;;5064995;28;20425;-45
2023/02/03 01:51:24;;;;;;;1.35;0.20;;;20.00;50.80;;;;;;5064211;28;20483;-47
2023/02/03 01:53:56;;;;;;;0.80;0.10;;;20.00;50.70;;;;;;5063019;28;20413;-47
2023/02/03 01:56:25;;;;;;;0.10;0.00;;;20.00;50.60;;;;;;5064602;28;20044;-50
2023/02/03 01:58:54;;;;;;;0.10;0.00;;;20.00;50.60;;;;;;5063106;28;20048;-50
2023/02/03 02:01:21;;;;;;;0.20;0.05;;;20.00;50.50;;;;;;5064840;28;20045;-46
2023/02/03 02:03:55;;;;;;;1.45;0.00;;;20.00;50.40;;;;;;5065031;28;20041;-48
2023/02/03 02:06:22;;;;;;;0.35;0.00;;;20.00;50.40;;;;;;5063296;28;20548;-48
2023/02/03 02:08:51;;;;;;;0.60;0.30;;;20.00;50.40;;;;;;5065194;28;20043;-44
2023/02/03 02:11:20;;;;;;;0.30;0.10;;;20.00;50.30;;;;;;5064667;28;20044;-43
2023/02/03 02:13:50;;;;;;;0.43;0.00;;;20.00;50.30;;;;;;5053325;28;20041;-47
2023/02/03 02:16:25;;;;;;;0.30;0.00;;;20.00;50.40;;;;;;5048464;28;20444;-44
2023/02/03 02:19:19;;;;;;;0.20;0.10;;;20.00;50.30;;;;;;5064634;28;20772;-44
2023/02/03 02:21:59;;;;;;;0.10;0.05;;;20.00;50.40;;;;;;5065214;28;20528;-44
2023/02/03 02:24:58;;;;;;;0.00;0.00;;;19.90;50.50;;;;;;5066901;28;20040;-46
2023/02/03 02:28:02;;;;;;;0.10;0.10;;;19.90;50.50;;;;;;5066323;28;20055;-46
2023/02/03 02:30:48;;;;;;;0.80;0.80;;;19.90;50.60;;;;;;5065384;28;20063;-42
2023/02/03 02:33:27;;;;;;;0.30;0.00;;;19.90;50.60;;;;;;5087009;28;20040;-44
2023/02/03 02:36:02;;;;;;;0.17;0.00;;;19.90;50.60;;;;;;5086927;28;20079;-44
2023/02/03 02:38:41;;;;;;;0.20;0.00;;;19.90;50.60;;;;;;5085248;28;20082;-47
2023/02/03 02:41:15;;;;;;;0.65;0.00;;;19.90;50.60;;;;;;5047841;28;20523;-47
2023/02/03 02:43:47;;;;;;;0.50;0.00;;;19.90;50.60;;;;;;5066608;28;20048;-44
2023/02/03 02:46:18;;;;;;;0.25;0.00;;;19.90;50.60;;;;;;5068327;28;20551;-45
2023/02/03 02:48:55;;;;;;;0.30;0.00;;;19.90;50.40;;;;;;5066796;28;20127;-46
2023/02/03 02:51:23;;;;;;;0.80;0.00;;;19.80;50.30;;;;;;5066769;28;20135;-45
2023/02/03 02:53:54;;;;;;;0.10;0.00;;;19.80;50.30;;;;;;5068147;28;20044;-45
2023/02/03 02:56:23;;;;;;;0.45;0.00;;;19.80;50.30;;;;;;5083432;28;20059;-43
2023/02/03 02:58:53;;;;;;;0.10;0.00;;;19.80;50.40;;;;;;5068899;28;20094;-46
2023/02/03 03:01:20;;;;;;;0.20;0.00;;;19.80;50.40;;;;;;5083840;28;20112;-45
2023/02/03 03:03:49;;;;;;;0.38;0.00;;;19.90;51.20;;;;;;5066140;28;20123;-44
2023/02/03 03:06:22;;;;;;;4.75;0.15;;;19.80;50.50;;;;;;5067746;28;20037;-46
2023/02/03 03:08:55;;;;;;;0.10;0.00;;;19.80;50.50;;;;;;5066334;28;20051;-43
2023/02/03 03:11:27;;;;;;;0.30;0.00;;;19.80;50.50;;;;;;5067160;28;20052;-43
2023/02/03 03:13:56;;;;;;;0.00;0.00;;;19.80;50.50;;;;;;5065434;28;20056;-45
2023/02/03 03:16:26;;;;;;;1.45;0.10;;;19.80;50.50;;;;;;5067552;28;20724;-45
2023/02/03 03:18:59;;;;;;;0.10;0.00;;;19.80;50.40;;;;;;5065910;28;20134;-44
2023/02/03 03:21:31;;;;;;;0.10;0.00;;;19.80;50.40;;;;;;5065590;28;20053;-42
2023/02/03 03:24:03;;;;;;;1.35;0.10;;;19.80;50.40;;;;;;5066877;28;20144;-43
2023/02/03 03:26:34;;;;;;;0.28;0.00;;;19.80;50.40;;;;;;5066793;28;20062;-43
2023/02/03 03:29:10;;;;;;;0.47;0.30;;;19.70;50.30;;;;;;5060722;28;20413;-43
2023/02/03 03:31:38;;;;;;;0.35;0.10;;;19.70;50.30;;;;;;5066889;28;20109;-45
2023/02/03 03:34:09;;;;;;;0.00;0.00;;;19.70;50.30;;;;;;5067021;28;21015;-44
2023/02/03 03:36:43;;;;;;;0.30;0.10;;;19.70;50.30;;;;;;5066848;28;20053;-43
2023/02/03 03:39:17;;;;;;;0.57;0.00;;;19.70;50.50;;;;;;5066842;28;20451;-43
2023/02/03 03:41:56;;;;;;;0.10;0.00;;;19.70;50.50;;;;;;5066874;28;20835;-43
2023/02/03 03:44:29;;;;;;;0.00;0.00;;;19.70;50.50;;;;;;5082388;28;20428;-45
2023/02/03 03:47:04;;;;;;;0.10;0.03;;;19.70;50.50;;;;;;5065612;28;20075;-44
2023/02/03 03:49:36;;;;;;;1.45;0.10;;;19.70;50.30;;;;;;5067114;28;20128;-42
2023/02/03 03:52:07;;;;;;;0.13;0.00;;;19.70;50.50;;;;;;5065739;28;20076;-43
2023/02/03 03:54:37;;;;;;;0.10;0.00;;;19.70;50.50;;;;;;5066618;28;20143;-45
2023/02/03 03:57:14;;;;;;;0.10;0.00;;;19.70;50.50;;;;;;5066767;28;20045;-45
2023/02/03 03:59:45;;;;;;;0.00;0.00;;;19.70;50.50;;;;;;5067101;28;20056;-49
2023/02/03 04:02:14;;;;;;;0.00;0.00;;;19.70;50.60;;;;;;5067205;28;20950;-46
2023/02/03 04:04:45;;;;;;;0.00;0.00;;;19.70;50.50;;;;;;5066852;28;20051;-49
2023/02/03 04:07:13;;;;;;;0.00;0.00;;;19.70;50.50;;;;;;5065314;28;20098;-43
2023/02/03 04:09:41;;;;;;;0.68;0.10;;;19.70;50.50;;;;;;5066339;28;20402;-46
2023/02/03 04:12:19;;;;;;;0.00;0.00;;;19.70;50.50;;;;;;5065091;28;20120;-46
2023/02/03 04:14:46;;;;;;;0.45;0.00;;;19.70;50.40;;;;;;5066629;28;20036;-44
2023/02/03 04:17:13;;;;;;;0.30;0.00;;;19.70;50.40;;;;;;5060898;28;20119;-43
2023/02/03 04:19:42;;;;;;;2.75;0.20;;;19.70;50.30;;;;;;5046745;28;20584;-46
2023/02/03 04:22:09;;;;;;;0.00;0.00;;;19.60;50.20;;;;;;5046604;28;20044;-43
2023/02/03 04:24:37;;;;;;;0.00;0.00;;;19.70;50.20;;;;;;5059523;28;20040;-45
2023/02/03 04:27:04;;;;;;;0.00;0.00;;;19.70;50.20;;;;;;5066632;28;20036;-43
2023/02/03 04:29:31;;;;;;;0.10;0.00;;;19.60;50.10;;;;;;5071456;28;20077;-45
2023/02/03 04:31:58;;;;;;;0.55;0.00;;;19.60;50.00;;;;;;5086759;28;20044;-43
2023/02/03 04:34:25;;;;;;;0.73;0.00;;;19.70;50.00;;;;;;5086731;28;20040;-46
2023/02/03 04:36:53;;;;;;;0.10;0.10;;;19.70;50.00;;;;;;5086829;28;20127;-43
2023/02/03 04:39:22;;;;;;;4.78;0.00;;;19.60;50.00;;;;;;5086018;28;20046;-43
2023/02/03 04:41:49;;;;;;;0.00;0.00;;;19.70;50.10;;;;;;5078936;28;20076;-43
2023/02/03 04:44:16;;;;;;;0.40;0.00;;;19.60;50.00;;;;;;5066141;28;20203;-43
2023/02/03 04:46:44;;;;;;;0.20;0.00;;;19.60;50.00;;;;;;5066099;28;20055;-45
2023/02/03 04:49:11;;;;;;;0.00;0.00;;;19.60;50.00;;;;;;5066169;28;20037;-42
2023/02/03 04:51:38;;;;;;;1.55;0.00;;;19.60;50.00;;;;;;5068171;28;20518;-43
2023/02/03 04:54:07;;;;;;;0.98;0.32;;;19.60;49.80;;;;;;5066021;28;20040;-42
2023/02/03 04:56:34;;;;;;;0.32;0.00;;;19.60;49.80;;;;;;5066249;28;20052;-43
2023/02/03 04:59:01;;;;;;;0.03;0.03;;;19.60;49.80;;;;;;5065873;28;20119;-44
2023/02/03 05:01:28;;;;;;;0.47;0.00;;;19.60;49.80;;;;;;5065724;28;20151;-44
2023/02/03 05:03:56;;;;;;;1.08;0.00;;;19.60;49.70;;;;;;5065512;28;20068;-42
2023/02/03 05:06:24;;;;;;;0.10;0.00;;;19.70;49.90;;;;;;5057301;28;20048;-43
2023/02/03 05:08:51;;;;;;;0.00;0.00;;;19.60;49.80;;;;;;5045572;28;20044;-42
2023/02/03 05:11:21;;;;;;;0.00;0.00;;;19.70;49.90;;;;;;5050466;28;20044;-42
2023/02/03 05:13:48;;;;;;;0.00;0.00;;;19.70;49.90;;;;;;5065556;28;20044;-46
2023/02/03 05:16:16;;;;;;;1.05;0.00;;;19.60;49.90;;;;;;5065429;28;20044;-46
2023/02/03 05:18:43;;;;;;;0.47;0.00;;;19.70;49.90;;;;;;5065357;28;20040;-43
2023/02/03 05:21:10;;;;;;;0.00;0.00;;;19.60;49.80;;;;;;5065113;28;20531;-43
2023/02/03 05:23:37;;;;;;;0.10;0.10;;;19.60;49.80;;;;;;5065511;28;20040;-44
2023/02/03 05:26:05;;;;;;;0.10;0.00;;;19.60;49.70;;;;;;5065346;28;20198;-42
2023/02/03 05:28:35;;;;;;;0.10;0.00;;;19.60;49.70;;;;;;5065243;28;20533;-46
2023/02/03 05:31:03;;;;;;;0.32;0.00;;;19.60;49.70;;;;;;5065311;28;20036;-45
2023/02/03 05:33:30;;;;;;;0.65;0.00;;;19.60;49.70;;;;;;5065286;28;20098;-45
2023/02/03 05:35:58;;;;;;;0.03;0.00;;;19.60;49.60;;;;;;5064798;28;20098;-43
2023/02/03 05:38:25;;;;;;;0.08;0.00;;;19.70;49.70;;;;;;5063774;28;20079;-44
2023/02/03 05:43:38;;;;;;;0.00;0.00;;;19.60;49.50;;;;;;5057629;28;20501;-44
2023/02/03 05:46:07;;;;;;;0.00;0.00;;;19.60;49.50;;;;;;5065375;28;20048;-44
2023/02/03 05:48:35;;;;;;;0.20;0.00;;;19.60;49.50;;;;;;5064962;28;20072;-46
2023/02/03 05:51:03;;;;;;;0.10;0.00;;;19.60;49.50;;;;;;5064722;28;20090;-45
2023/02/03 05:53:30;;;;;;;1.27;0.00;;;19.70;49.50;;;;;;5067622;28;20115;-44
2023/02/03 05:55:57;;;;;;;0.40;0.00;;;19.60;49.40;;;;;;5057603;28;20049;-42
2023/02/03 05:58:25;;;;;;;0.03;0.00;;;19.70;49.40;;;;;;5048941;28;20063;-45
2023/02/03 06:00:53;;;;;;;0.38;0.00;;;19.60;49.30;;;;;;5049003;28;20041;-43
2023/02/03 06:03:21;;;;;;;0.03;0.00;;;19.60;49.30;;;;;;5048901;28;20115;-45
2023/02/03 06:05:48;;;;;;;0.68;0.00;;;19.60;49.30;;;;;;5048550;28;20128;-44
2023/02/03 06:08:15;;;;;;;0.00;0.00;;;19.70;49.30;;;;;;5049558;28;20069;-47
2023/02/03 06:10:42;;;;;;;0.00;0.00;;;19.60;49.30;;;;;;5049229;28;20449;-45
2023/02/03 06:13:11;;;;;;;0.22;0.00;;;19.60;49.10;;;;;;5048809;28;20056;-46
2023/02/03 06:15:39;;;;;;;1.40;0.00;;;19.60;49.10;;;;;;5048998;28;20037;-42
2023/02/03 06:18:08;;;;;;;0.30;0.00;;;19.60;49.00;;;;;;5048232;28;20056;-44
2023/02/03 06:20:35;;;;;;;0.10;0.10;;;19.60;49.00;;;;;;5048306;28;20124;-43
2023/02/03 06:23:02;;;;;;;0.50;0.00;;;19.70;49.00;;;;;;5049783;28;20048;-44
2023/02/03 06:25:30;;;;;;;0.00;0.00;;;19.60;49.00;;;;;;5068186;28;20044;-43
2023/02/03 06:27:58;;;;;;;0.20;0.10;;;19.60;48.90;;;;;;5068093;28;20052;-42
2023/02/03 06:30:25;;;;;;;0.30;0.00;;;19.60;48.90;;;;;;5067905;28;20076;-43
2023/02/03 06:32:52;;;;;;;1.38;0.00;;;19.60;48.90;;;;;;5076207;28;20040;-42
2023/02/03 06:35:20;;;;;;;1.58;0.40;;;19.60;48.90;;;;;;5087746;28;20603;-42
2023/02/03 06:37:47;;;;;;;0.10;0.03;;;19.60;48.90;;;;;;5088482;28;20044;-47
2023/02/03 06:40:15;;;;;;;0.10;0.00;;;19.60;48.90;;;;;;5088136;28;20535;-43
2023/02/03 06:42:45;;;;;;;0.00;0.00;;;19.60;48.90;;;;;;5073858;28;20504;-43
2023/02/03 06:45:12;;;;;;;1.08;0.60;;;19.60;48.90;;;;;;5067551;28;20519;-44
2023/02/03 06:47:40;;;;;;;0.70;0.00;;;19.60;49.00;;;;;;5067421;28;20040;-47
2023/02/03 06:50:08;;;;;;;0.00;0.00;;;19.60;49.00;;;;;;5067782;28;20063;-44
2023/02/03 06:52:37;;;;;;;0.10;0.00;;;19.60;49.00;;;;;;5067578;28;20481;-44
2023/02/03 06:55:05;;;;;;;0.00;0.00;;;19.60;49.00;;;;;;5066404;28;20044;-45
2023/02/03 06:57:32;;;;;;;0.75;0.00;;;19.60;48.90;;;;;;5068574;28;20037;-45
2023/02/03 07:00:00;;;;;;;1.75;0.00;;;19.60;48.90;;;;;;5067777;28;20044;-43
2023/02/03 07:02:27;;;;;;;1.45;0.00;;;19.60;48.90;;;;;;5066916;28;20086;-44
2023/02/03 07:04:54;;;;;;;2.63;0.20;;;19.60;49.00;;;;;;5066577;28;20076;-44
2023/02/03 07:07:21;;;;;;;0.10;0.00;;;19.60;49.00;;;;;;5067543;28;20055;-43
2023/02/03 07:09:50;;;;;;;0.95;0.00;;;19.60;48.90;;;;;;5067437;28;20048;-45
2023/02/03 07:12:17;;;;;;;0.10;0.00;;;19.60;48.90;;;;;;5067432;28;20098;-45
2023/02/03 07:14:44;;;;;;;2.83;0.00;;;19.60;48.90;;;;;;5065818;28;20072;-43
2023/02/03 07:17:11;;;;;;;0.65;0.00;;;19.60;48.90;;;;;;5066898;28;20559;-44
2023/02/03 07:19:39;;;;;;;4.82;0.00;;;19.60;49.00;;;;;;5067249;28;20044;-46
2023/02/03 07:22:06;;;;;;;2.40;0.17;;;19.60;49.00;;;;;;5067426;28;20056;-42
2023/02/03 07:24:33;;;;;;;0.52;0.00;;;19.60;48.90;;;;;;5049048;28;20168;-43
2023/02/03 07:27:03;;;;;;;0.20;0.00;;;19.60;48.90;;;;;;5067114;28;20637;-44
2023/02/03 07:29:30;;;;;;;0.08;0.00;;;19.60;48.90;;;;;;5067106;28;20041;-47
2023/02/03 07:31:57;;;;;;;0.10;0.00;;;19.60;48.90;;;;;;5066643;28;20107;-44
2023/02/03 07:34:24;;;;;;;0.20;0.00;;;19.60;48.90;;;;;;5066770;28;20085;-43
2023/02/03 07:36:51;;;;;;;1.25;0.00;;;19.60;48.90;;;;;;5066846;28;20048;-43
2023/02/03 07:39:18;;;;;;;1.17;0.00;;;19.60;48.90;;;;;;5066277;28;20040;-44
2023/02/03 07:41:46;;;;;;;4.75;0.00;;;19.60;48.90;;;;;;5065187;28;20105;-44
2023/02/03 07:44:15;;;;;;;0.00;0.00;;;19.60;48.80;;;;;;5067054;28;20064;-42
2023/02/03 07:46:43;;;;;;;1.05;0.00;;;19.60;48.80;;;;;;5066366;28;20055;-43
2023/02/03 07:49:10;;;;;;;0.20;0.00;;;19.60;48.80;;;;;;5066973;28;20048;-42
2023/02/03 07:51:38;;;;;;;1.02;0.05;;;19.60;48.80;;;;;;5067100;28;20126;-45
2023/02/03 07:54:05;;;;;;;1.10;0.30;;;19.60;48.70;;;;;;5067035;28;20051;-40
2023/02/03 07:56:33;;;;;;;0.85;0.00;;;19.60;48.80;;;;;;5062288;28;20045;-45
2023/02/03 07:59:00;;;;;;;0.35;0.00;;;19.60;48.50;;;;;;5064478;28;20066;-44
2023/02/03 08:01:30;;;;;;;0.28;0.10;;;19.60;48.30;;;;;;5065877;28;20040;-53
2023/02/03 08:03:57;;;;;;;1.45;0.30;;;19.60;48.20;;;;;;5066078;28;20523;-49
2023/02/03 08:06:25;;;;;;;0.20;0.00;;;19.70;48.50;;;;;;5066192;28;20063;-47
2023/02/03 08:08:52;;;;;;;0.28;0.00;;;19.70;48.60;;;;;;5066121;28;20158;-49
2023/02/03 08:11:20;;;;;;;1.45;0.00;;;19.70;48.60;;;;;;5066276;28;20059;-49
2023/02/03 08:13:47;;;;;;;1.75;0.10;;;19.80;48.60;;;;;;5064733;28;20052;-48
2023/02/03 08:16:14;;;;;;;1.95;0.10;;;19.80;48.60;;;;;;5064977;28;20055;-51
2023/02/03 08:18:42;;;;;;;0.00;0.00;;;19.90;48.60;;;;;;5066490;28;20403;-54
2023/02/03 08:21:09;;;;;;;0.00;0.00;;;19.90;48.60;;;;;;5064243;28;20467;-49
2023/02/03 08:23:37;;;;;;;0.30;0.00;;;20.00;48.80;;;;;;5057399;28;20067;-52
2023/02/03 08:26:05;;;;;;;7.47;0.25;;;20.10;48.70;;;;;;5066117;28;20040;-55
2023/02/03 08:28:32;;;;;;;0.30;0.00;;;20.10;48.30;;;;;;5065743;28;20052;-53
2023/02/03 08:30:59;;;;;;;0.10;0.10;;;20.20;48.20;;;;;;5065350;28;20090;-48
2023/02/03 08:33:27;;;;;;;0.10;0.10;;;20.30;48.00;;;;;;5066013;28;20045;-49
2023/02/03 08:35:57;;;;;;;0.75;0.30;;;20.30;47.90;;;;;;5065471;28;20071;-50
2023/02/03 08:38:24;;;;;;;2.90;0.00;;;20.40;47.70;;;;;;5065685;28;20052;-54
2023/02/03 08:40:51;;;;;;;0.10;0.00;;;20.50;47.60;;;;;;5073001;28;20109;-50
2023/02/03 08:43:18;;;;;;;0.00;0.00;;;20.50;47.30;;;;;;5065511;28;20428;-51
2023/02/03 08:45:45;;;;;;;1.08;0.10;;;20.60;47.10;;;;;;5065497;28;20051;-52
2023/02/03 08:48:12;;;;;;;0.15;0.00;;;20.70;47.00;;;;;;5064023;28;20067;-53
2023/02/03 08:50:43;;;;;;;0.68;0.20;;;20.80;47.00;;;;;;5065364;28;20521;-46
2023/02/03 08:53:12;;;;;;;0.32;0.08;;;20.80;46.50;;;;;;5065689;28;20040;-48
2023/02/03 08:55:39;;;;;;;0.28;0.10;;;20.90;46.40;;;;;;5067422;28;20711;-51
2023/02/03 08:58:06;;;;;;;4.18;0.40;;;20.90;46.20;;;;;;5060467;28;20513;-49
2023/02/03 09:00:33;;;;;;;0.43;0.00;;;21.00;46.10;;;;;;5064593;28;20181;-45
2023/02/03 09:03:01;;;;;;;1.35;0.50;;;21.10;45.90;;;;;;5065069;28;20059;-46
2023/02/03 09:05:30;;;;;;;1.15;0.10;;;21.10;45.70;;;;;;5063510;28;20126;-48
2023/02/03 09:07:57;;;;;;;0.93;0.03;;;21.20;45.60;;;;;;5065107;28;20135;-47
2023/02/03 09:10:26;;;;;;;0.15;0.00;;;21.20;45.40;;;;;;5058461;28;20413;-46
2023/02/03 09:12:53;;;;;;;0.47;0.10;;;21.40;45.20;;;;;;5063864;28;20037;-46
2023/02/03 09:15:20;;;;;;;1.98;1.00;;;21.40;45.00;;;;;;5064970;28;20104;-47
2023/02/03 09:17:47;;;;;;;2.55;0.00;;;21.50;44.70;;;;;;5064737;28;20036;-48
2023/02/03 09:20:15;;;;;;;1.90;0.00;;;21.50;44.70;;;;;;5064519;28;20044;-50
2023/02/03 09:22:42;;;;;;;1.50;0.00;;;21.50;44.50;;;;;;5064551;28;20050;-47
2023/02/03 09:25:10;;;;;;;0.00;0.00;;;21.60;44.50;;;;;;5064521;28;20036;-48
2023/02/03 09:27:38;;;;;;;0.00;0.00;;;21.60;44.40;;;;;;5062677;28;20048;-52
2023/02/03 09:30:07;;;;;;;0.43;0.13;;;21.70;44.20;;;;;;5064567;28;20068;-52
2023/02/03 09:32:34;;;;;;;1.30;0.75;;;21.70;44.10;;;;;;5064647;28;20584;-47
2023/02/03 09:35:01;;;;;;;0.82;0.00;;;21.80;44.10;;;;;;5064292;28;20044;-49
2023/02/03 09:37:30;;;;;;;0.40;0.00;;;21.80;43.90;;;;;;5062831;28;20148;-48
2023/02/03 09:39:57;;;;;;;0.75;0.00;;;21.80;43.70;;;;;;5063957;28;20131;-55
2023/02/03 09:43:03;;;;;;;0.20;0.00;;;21.90;43.80;;;;;;5064526;28;20060;-51
2023/02/03 09:45:32;;;;;;;0.57;0.00;;;22.00;43.60;;;;;;5060991;28;20139;-48
2023/02/03 09:48:06;;;;;;;0.10;0.00;;;21.90;44.00;;;;;;5064806;28;20040;-49
2023/02/03 09:50:35;;;;;;;2.15;0.30;;;22.00;44.20;;;;;;5063077;28;20135;-45
2023/02/03 09:53:12;;;;;;;1.98;0.00;;;22.00;44.00;;;;;;5063936;28;20048;-46
2023/02/03 09:55:42;;;;;;;1.98;0.10;;;22.00;44.00;;;;;;5064402;28;20572;-52
2023/02/03 09:58:12;;;;;;;3.50;0.05;;;21.90;44.00;;;;;;5063630;28;20063;-54
2023/02/03 10:00:44;;;;;;;0.10;0.00;;;21.90;44.10;;;;;;5051775;28;20155;-55
2023/02/03 10:03:23;;;;;;;0.55;0.55;;;21.90;44.10;;;;;;5064383;28;20114;-52
2023/02/03 10:06:05;;;;;;;0.13;0.00;;;21.90;44.10;;;;;;5056887;28;20128;-52
2023/02/03 10:09:02;;;;;;;0.22;0.00;;;21.90;44.10;;;;;;5064131;28;20036;-49
2023/02/03 10:11:48;;;;;;;4.10;0.10;;;21.90;44.10;;;;;;5060839;28;20123;-48
2023/02/03 10:14:30;;;;;;;0.52;0.17;;;21.90;44.50;;;;;;5064214;28;20516;-46
2023/02/03 10:17:12;;;;;;;0.10;0.00;;;21.80;44.40;;;;;;5064511;28;20048;-50
2023/02/03 10:19:44;;;;;;;2.65;0.05;;;21.80;44.80;;;;;;5064776;28;20139;-54
2023/02/03 10:22:15;;;;;;;5.78;0.10;;;21.80;44.70;;;;;;5064645;28;20588;-54
2023/02/03 10:24:47;;;;;;;4.57;0.43;;;21.80;44.80;;;;;;5063420;28;20044;-51
2023/02/03 10:27:17;;;;;;;0.50;0.10;;;21.80;44.80;;;;;;5061429;28;20083;-44
2023/02/03 10:29:49;;;;;;;0.95;0.00;;;21.80;44.80;;;;;;5064255;28;20762;-46
2023/02/03 10:32:17;;;;;;;0.43;0.00;;;21.80;44.50;;;;;;5048251;28;20087;-47
2023/02/03 10:34:48;;;;;;;0.10;0.05;;;21.80;44.50;;;;;;5068738;28;20036;-46
2023/02/03 10:37:25;;;;;;;1.25;0.00;;;21.80;44.50;;;;;;5071619;28;20151;-47
2023/02/03 10:39:54;;;;;;;7.07;0.13;;;21.90;44.30;;;;;;5066292;28;20060;-47
2023/02/03 10:42:22;;;;;;;0.73;0.00;;;21.90;44.40;;;;;;5077002;28;20036;-47
2023/02/03 10:44:53;;;;;;;0.63;0.22;;;21.80;44.20;;;;;;5067684;28;20094;-45
2023/02/03 10:47:26;;;;;;;2.70;0.10;;;21.80;44.00;;;;;;5066018;28;20044;-46
2023/02/03 10:49:56;;;;;;;0.65;0.47;;;21.80;44.00;;;;;;5064714;28;20072;-47
2023/02/03 10:52:32;;;;;;;4.22;0.05;;;21.80;44.00;;;;;;5064286;28;20481;-48
2023/02/03 10:55:06;;;;;;;0.28;0.08;;;21.80;43.90;;;;;;5066743;28;20044;-47
2023/02/03 10:57:38;;;;;;;0.20;0.00;;;21.70;43.90;;;;;;5060422;28;20561;-47
2023/02/03 11:00:22;;;;;;;0.75;0.00;;;21.70;44.10;;;;;;5064518;28;20044;-51
2023/02/03 11:02:59;;;;;;;0.20;0.20;;;21.80;44.00;;;;;;5065791;28;20068;-51
2023/02/03 11:05:27;;;;;;;2.05;0.05;;;21.80;43.70;;;;;;5056290;28;20805;-51
2023/02/03 11:07:55;;;;;;;0.73;0.10;;;21.70;43.80;;;;;;5065113;28;20075;-49
2023/02/03 11:10:34;;;;;;;1.17;0.03;;;21.70;43.70;;;;;;5066793;28;20109;-49
2023/02/03 11:13:19;;;;;;;0.88;0.05;;;21.70;43.70;;;;;;5066996;28;20094;-48
2023/02/03 11:15:55;;;;;;;0.13;0.00;;;21.80;43.70;;;;;;5067246;28;20052;-49
2023/02/03 11:18:51;;;;;;;0.00;0.00;;;21.70;43.60;;;;;;5051854;28;20480;-50
2023/02/03 11:21:21;;;;;;;0.68;0.60;;;21.70;43.60;;;;;;5066741;28;20045;-52
2023/02/03 11:23:53;;;;;;;0.68;0.00;;;21.70;43.60;;;;;;5066020;28;20178;-47
2023/02/03 11:26:22;;;;;;;1.55;0.10;;;21.70;43.50;;;;;;5066584;28;20098;-50
2023/02/03 11:28:52;;;;;;;1.52;0.00;;;21.70;43.40;;;;;;5065087;28;20052;-52
2023/02/03 11:31:23;;;;;;;0.10;0.10;;;21.70;43.50;;;;;;5066548;28;20134;-49
2023/02/03 11:33:58;;;;;;;0.50;0.00;;;21.70;43.50;;;;;;5066541;28;20125;-48
2023/02/03 11:36:28;;;;;;;0.10;0.10;;;21.70;43.50;;;;;;5064284;28;20461;-51
2023/02/03 11:39:10;;;;;;;0.20;0.00;;;21.70;43.40;;;;;;5055787;28;20036;-51
2023/02/03 11:41:40;;;;;;;0.00;0.00;;;21.80;43.20;;;;;;5066535;28;20124;-51
2023/02/03 11:44:18;;;;;;;0.00;0.00;;;21.70;43.40;;;;;;5066149;28;20048;-50
2023/02/03 11:46:47;;;;;;;0.00;0.00;;;21.70;43.20;;;;;;5066464;28;20068;-51
2023/02/03 11:49:47;;;;;;;0.00;0.00;;;21.70;43.20;;;;;;5066230;28;20044;-51
2023/02/03 11:52:32;;;;;;;0.17;0.03;;;21.70;43.20;;;;;;5048122;28;20126;-51
2023/02/03 11:55:07;;;;;;;0.20;0.10;;;21.70;43.20;;;;;;5064753;28;20540;-53
2023/02/03 11:57:43;;;;;;;0.65;0.00;;;21.70;43.30;;;;;;5066019;28;20036;-48
2023/02/03 12:00:20;;;;;;;0.10;0.03;;;21.70;43.30;;;;;;5066278;28;20037;-48
2023/02/03 12:03:19;;;;;;;0.90;0.15;;;21.70;43.30;;;;;;5066177;28;20331;-49
2023/02/03 12:05:59;;;;;;;0.10;0.00;;;21.70;43.20;;;;;;5044598;28;20146;-51
2023/02/03 12:08:41;;;;;;;0.47;0.00;;;21.60;43.30;;;;;;5066501;28;20374;-49
2023/02/03 12:11:19;;;;;;;4.60;0.00;;;21.70;43.30;;;;;;5065816;28;20836;-51
2023/02/03 12:13:59;;;;;;;3.28;0.03;;;21.60;44.00;;;;;;5065573;28;20127;-48
2023/02/03 12:16:55;;;;;;;0.60;0.00;;;21.60;43.60;;;;;;5051699;28;20171;-50
2023/02/03 12:19:37;;;;;;;4.30;0.00;;;21.60;43.80;;;;;;5061609;28;20072;-53
2023/02/03 12:22:12;;;;;;;1.08;0.00;;;21.60;44.10;;;;;;5063821;28;20048;-55
2023/02/03 12:24:53;;;;;;;3.22;0.10;;;21.70;44.40;;;;;;5069268;28;20049;-55
2023/02/03 12:27:32;;;;;;;0.40;0.40;;;21.70;44.50;;;;;;5065459;28;20043;-53
2023/02/03 12:30:05;;;;;;;0.52;0.00;;;21.60;44.60;;;;;;5064983;28;20110;-49
2023/02/03 12:32:38;;;;;;;0.95;0.63;;;21.70;45.10;;;;;;5063669;28;20066;-53
2023/02/03 12:35:15;;;;;;;1.55;0.00;;;21.70;44.80;;;;;;5064830;28;20045;-53
2023/02/03 12:37:50;;;;;;;0.28;0.10;;;21.70;44.80;;;;;;5070324;28;20052;-55
2023/02/03 12:40:22;;;;;;;0.65;0.00;;;21.70;44.80;;;;;;5049897;28;20759;-55
2023/02/03 12:42:55;;;;;;;0.28;0.10;;;21.70;44.80;;;;;;5065514;28;20152;-54
2023/02/03 12:45:26;;;;;;;0.60;0.57;;;21.70;44.80;;;;;;5065058;28;20126;-56
2023/02/03 12:48:00;;;;;;;0.82;0.00;;;21.70;45.20;;;;;;5067161;28;20048;-48
2023/02/03 12:50:32;;;;;;;3.05;0.00;;;21.70;45.30;;;;;;5062799;28;20460;-58
2023/02/03 12:53:05;;;;;;;1.15;0.00;;;21.80;45.50;;;;;;5065202;28;20044;-51
2023/02/03 12:55:36;;;;;;;2.00;0.00;;;21.80;45.70;;;;;;5065126;28;20040;-51
2023/02/03 12:58:06;;;;;;;1.55;0.10;;;21.80;45.80;;;;;;5064230;28;20041;-49
2023/02/03 13:00:42;;;;;;;4.38;0.00;;;21.80;45.90;;;;;;5064402;28;20079;-53
2023/02/03 13:03:15;;;;;;;1.23;0.10;;;21.80;45.70;;;;;;5063422;28;20131;-53
2023/02/03 13:05:49;;;;;;;0.52;0.10;;;21.80;45.70;;;;;;5063797;28;20129;-50
2023/02/03 13:08:27;;;;;;;6.05;0.10;;;21.80;45.60;;;;;;5064094;28;20105;-50